This is the latest recevied weather packets stored in our database for station/object DK4EP-10. If no packets are shown the sender has not sent any weather packets the latest 10 day(s).
| Time | Temp. | Humidity | Pressure | Rain* | Wind** | Luminosity | Snow |
|---|---|---|---|---|---|---|---|
| 1777828155 | 24.44° C | 42% | 988 hPa | - | - | - | - |
| 1777827254 | 25.56° C | 40% | 988 hPa | - | - | - | - |
| 1777826353 | 26.67° C | 38% | 988 hPa | - | - | - | - |
| 1777825452 | 28.89° C | 34% | 988 hPa | - | - | - | - |
| 1777824550 | 29.44° C | 33% | 988 hPa | - | - | - | - |
| 1777823649 | 29.44° C | 32% | 988 hPa | - | - | - | - |
| 1777822748 | 29.44° C | 32% | 988 hPa | - | - | - | - |
| 1777821847 | 29.44° C | 32% | 988 hPa | - | - | - | - |
| 1777820946 | 30.56° C | 31% | 988 hPa | - | - | - | - |
| 1777820045 | 30° C | 31% | 988 hPa | - | - | - | - |
| 1777819143 | 31.11° C | 31% | 989 hPa | - | - | - | - |
| 1777818242 | 30° C | 32% | 989 hPa | - | - | - | - |
| 1777817342 | 30.56° C | 33% | 989 hPa | - | - | - | - |
| 1777816440 | 30.56° C | 32% | 989 hPa | - | - | - | - |
| 1777815538 | 30° C | 34% | 989 hPa | - | - | - | - |
| 1777814637 | 30° C | 35% | 989 hPa | - | - | - | - |
| 1777813736 | 29.44° C | 33% | 990 hPa | - | - | - | - |
| 1777812834 | 30° C | 36% | 990 hPa | - | - | - | - |
| 1777811933 | 29.44° C | 35% | 990 hPa | - | - | - | - |
| 1777811031 | 29.44° C | 36% | 990 hPa | - | - | - | - |
| 1777810130 | 29.44° C | 34% | 990 hPa | - | - | - | - |
| 1777809229 | 28.89° C | 35% | 990 hPa | - | - | - | - |
| 1777808328 | 29.44° C | 35% | 991 hPa | - | - | - | - |
| 1777807427 | 28.33° C | 37% | 991 hPa | - | - | - | - |
| 1777806526 | 28.33° C | 36% | 991 hPa | - | - | - | - |
* Rain since midnight (hover to see other rain measurements)
** Current wind speed in m/s (hover to see current wind gust speed)